Time;durP1;ratioP1;P1;durP2;ratioP2;P2;SDS_P1;SDS_P2;PMS_P1;PMS_P2;Temp;Humidity;BMP_temperature;BMP_pressure;BME280_temperature;BME280_humidity;BME280_pressure;Samples;Min_cycle;Max_cycle;Signal;HPM_P1;HPM_P2
2021/05/14 00:00:10;;;;;;;19.52;12.25;;;;;;;;;;8275019;28;20048;-68
2021/05/14 00:04:14;;;;;;;14.98;11.35;;;;;;;;;;8293434;28;20414;-67
2021/05/14 00:08:19;;;;;;;17.42;12.02;;;;;;;;;;8295092;28;20098;-67
2021/05/14 00:12:24;;;;;;;18.88;11.93;;;;;;;;;;8277595;28;20053;-67
2021/05/14 00:16:29;;;;;;;17.60;11.95;;;;;;;;;;8293067;28;20363;-67
2021/05/14 00:20:34;;;;;;;16.42;11.43;;;;;;;;;;8294248;28;20417;-67
2021/05/14 00:24:39;;;;;;;18.45;11.35;;;;;;;;;;8295293;28;20053;-67
2021/05/14 00:28:44;;;;;;;19.85;11.77;;;;;;;;;;8293146;28;20431;-68
2021/05/14 00:32:49;;;;;;;18.88;12.02;;;;;;;;;;8275306;28;20352;-67
2021/05/14 00:36:53;;;;;;;16.25;11.95;;;;;;;;;;8292788;28;20471;-67
2021/05/14 00:40:58;;;;;;;18.17;12.15;;;;;;;;;;8294882;28;20494;-67
2021/05/14 00:45:06;;;;;;;17.08;11.57;;;;;;;;;;8292730;28;20455;-67
2021/05/14 00:49:11;;;;;;;20.33;12.27;;;;;;;;;;8291872;28;20475;-67
2021/05/14 00:53:16;;;;;;;17.00;12.07;;;;;;;;;;8292760;28;20348;-67
2021/05/14 00:57:22;;;;;;;20.08;12.77;;;;;;;;;;8293758;28;20095;-67
2021/05/14 01:01:27;;;;;;;20.23;12.52;;;;;;;;;;8258802;28;20074;-67
2021/05/14 01:05:32;;;;;;;16.20;11.35;;;;;;;;;;8313201;28;20075;-67
2021/05/14 01:09:40;;;;;;;25.92;11.52;;;;;;;;;;8326564;28;20485;-67
2021/05/14 01:13:45;;;;;;;;;;;;;;;;;;8326359;28;20359;-67
2021/05/14 01:17:50;;;;;;;18.65;11.98;;;;;;;;;;8324150;28;20277;-67
2021/05/14 01:21:54;;;;;;;17.95;11.65;;;;;;;;;;8323901;28;20485;-67
2021/05/14 01:25:59;;;;;;;20.73;12.27;;;;;;;;;;8306732;28;20423;-67
2021/05/14 01:30:05;;;;;;;20.90;11.70;;;;;;;;;;8324439;28;20482;-68
2021/05/14 01:34:10;;;;;;;19.73;11.52;;;;;;;;;;8325384;28;20469;-67
2021/05/14 01:38:15;;;;;;;21.05;13.35;;;;;;;;;;8325053;28;20477;-67
2021/05/14 01:42:20;;;;;;;23.00;12.15;;;;;;;;;;8324427;28;20383;-67
2021/05/14 01:46:25;;;;;;;18.67;11.77;;;;;;;;;;8323911;28;20362;-67
2021/05/14 01:50:30;;;;;;;18.85;12.40;;;;;;;;;;8324845;28;20462;-67
2021/05/14 01:54:35;;;;;;;20.80;12.15;;;;;;;;;;8306415;28;20451;-67
2021/05/14 01:58:40;;;;;;;18.08;12.45;;;;;;;;;;8323222;28;20479;-67
2021/05/14 02:02:45;;;;;;;20.85;12.10;;;;;;;;;;8326009;28;20332;-67
2021/05/14 02:06:50;;;;;;;19.77;11.85;;;;;;;;;;8323384;28;20482;-67
2021/05/14 02:10:55;;;;;;;26.77;12.88;;;;;;;;;;8324352;28;20378;-67
2021/05/14 02:15:00;;;;;;;18.88;11.20;;;;;;;;;;8323599;28;20048;-67
2021/05/14 02:19:05;;;;;;;21.17;12.98;;;;;;;;;;8290035;28;20367;-67
2021/05/14 02:23:10;;;;;;;17.40;12.23;;;;;;;;;;8328647;28;20339;-67
2021/05/14 02:27:16;;;;;;;20.80;11.80;;;;;;;;;;8312821;28;20409;-67
2021/05/14 02:31:20;;;;;;;18.08;12.32;;;;;;;;;;8312607;28;20383;-68
2021/05/14 02:35:25;;;;;;;17.15;12.85;;;;;;;;;;8330404;28;20348;-67
2021/05/14 02:39:29;;;;;;;18.88;12.07;;;;;;;;;;8331469;28;20491;-67
2021/05/14 02:43:34;;;;;;;18.70;12.07;;;;;;;;;;8329215;28;20461;-67
2021/05/14 02:47:38;;;;;;;20.90;12.95;;;;;;;;;;8329663;28;20394;-67
2021/05/14 02:51:43;;;;;;;23.02;12.77;;;;;;;;;;8329500;28;20497;-67
2021/05/14 02:55:48;;;;;;;16.67;12.18;;;;;;;;;;8329193;28;20379;-67
2021/05/14 02:59:52;;;;;;;19.27;12.40;;;;;;;;;;8311350;28;20355;-67
2021/05/14 03:03:57;;;;;;;20.65;12.43;;;;;;;;;;8329570;28;20396;-67
2021/05/14 03:08:03;;;;;;;17.90;12.38;;;;;;;;;;8329066;28;20466;-67
2021/05/14 03:12:09;;;;;;;15.60;11.23;;;;;;;;;;8330357;28;20085;-67
2021/05/14 03:16:13;;;;;;;26.17;12.48;;;;;;;;;;8329709;28;20471;-67
2021/05/14 03:20:18;;;;;;;19.33;12.43;;;;;;;;;;8311114;28;20351;-67
2021/05/14 03:24:23;;;;;;;20.05;12.32;;;;;;;;;;8328113;28;20056;-67
2021/05/14 03:28:28;;;;;;;15.38;11.18;;;;;;;;;;8327841;28;20475;-67
2021/05/14 03:32:33;;;;;;;26.70;12.63;;;;;;;;;;8310136;28;20417;-67
2021/05/14 03:36:38;;;;;;;20.50;11.63;;;;;;;;;;8328435;28;20463;-67
2021/05/14 03:40:44;;;;;;;15.45;11.38;;;;;;;;;;8328137;28;20056;-69
2021/05/14 03:44:49;;;;;;;17.60;11.68;;;;;;;;;;8326919;28;20443;-68
2021/05/14 03:48:54;;;;;;;18.95;12.20;;;;;;;;;;8327094;28;20493;-68
2021/05/14 03:53:02;;;;;;;18.80;11.52;;;;;;;;;;8327567;28;20454;-68
2021/05/14 03:57:08;;;;;;;21.17;12.98;;;;;;;;;;8329668;28;20478;-67
2021/05/14 04:01:13;;;;;;;18.63;12.32;;;;;;;;;;8327621;28;20478;-67
2021/05/14 04:05:21;;;;;;;17.98;11.18;;;;;;;;;;8308988;28;20471;-68
2021/05/14 04:09:29;;;;;;;16.98;11.23;;;;;;;;;;8330020;28;20363;-68
2021/05/14 04:17:56;;;;;;;15.55;11.02;;;;;;;;;;8328393;28;20474;-68
2021/05/14 04:22:04;;;;;;;17.85;11.50;;;;;;;;;;8327670;28;20386;-68
2021/05/14 04:26:08;;;;;;;17.17;11.95;;;;;;;;;;8308551;28;20455;-68
2021/05/14 04:30:14;;;;;;;17.83;11.43;;;;;;;;;;8308127;28;20447;-68
2021/05/14 04:34:20;;;;;;;18.48;11.52;;;;;;;;;;8326082;28;20367;-68
2021/05/14 04:38:33;;;;;;;15.35;9.07;;;;;;;;;;8325684;28;20579;-68
2021/05/14 04:42:38;;;;;;;15.45;10.05;;;;;;;;;;8325414;28;20501;-68
2021/05/14 04:46:45;;;;;;;16.60;9.45;;;;;;;;;;8324356;28;20493;-68
2021/05/14 04:50:51;;;;;;;18.33;9.27;;;;;;;;;;8324813;28;20462;-68
2021/05/14 04:54:56;;;;;;;15.68;9.15;;;;;;;;;;8327069;28;20464;-68
2021/05/14 04:59:01;;;;;;;15.32;9.18;;;;;;;;;;8307477;28;20355;-68
2021/05/14 05:03:07;;;;;;;14.63;9.25;;;;;;;;;;8325421;28;20079;-68
2021/05/14 05:07:12;;;;;;;15.35;11.50;;;;;;;;;;8324633;28;20478;-68
2021/05/14 05:11:17;;;;;;;15.52;10.10;;;;;;;;;;8325579;28;20473;-69
2021/05/14 05:15:21;;;;;;;16.20;10.15;;;;;;;;;;8324704;28;20459;-68
2021/05/14 05:19:27;;;;;;;20.48;11.02;;;;;;;;;;8326322;28;20348;-68
2021/05/14 05:23:32;;;;;;;20.42;11.20;;;;;;;;;;8326957;28;20447;-68
2021/05/14 05:27:37;;;;;;;17.92;11.20;;;;;;;;;;8324366;28;20384;-68
2021/05/14 05:31:42;;;;;;;17.65;10.95;;;;;;;;;;8325797;28;20060;-68
2021/05/14 05:35:47;;;;;;;15.50;10.75;;;;;;;;;;8323250;28;20390;-68
2021/05/14 05:39:51;;;;;;;19.15;11.55;;;;;;;;;;8290731;28;20355;-68
2021/05/14 05:43:57;;;;;;;17.92;12.80;;;;;;;;;;8326293;28;20176;-67
2021/05/14 05:48:02;;;;;;;19.40;11.40;;;;;;;;;;8322468;28;20052;-68
2021/05/14 05:52:07;;;;;;;18.05;11.50;;;;;;;;;;8322361;28;20421;-68
2021/05/14 05:56:12;;;;;;;20.13;10.02;;;;;;;;;;8323887;28;20470;-68
2021/05/14 06:00:17;;;;;;;18.27;8.75;;;;;;;;;;8322481;28;20374;-68
2021/05/14 06:04:23;;;;;;;17.55;10.45;;;;;;;;;;8305863;28;20401;-68
2021/05/14 06:08:28;;;;;;;19.25;12.15;;;;;;;;;;8323261;28;20471;-68
2021/05/14 06:12:33;;;;;;;18.35;11.85;;;;;;;;;;8325413;28;20462;-69
2021/05/14 06:16:38;;;;;;;19.50;12.25;;;;;;;;;;8325140;28;20372;-68
2021/05/14 06:20:45;;;;;;;24.70;11.30;;;;;;;;;;8324485;28;20079;-67
2021/05/14 06:24:50;;;;;;;25.42;11.65;;;;;;;;;;8324498;28;20111;-68
2021/05/14 06:28:54;;;;;;;18.73;11.38;;;;;;;;;;8323109;28;20443;-69
2021/05/14 06:33:00;;;;;;;21.98;11.82;;;;;;;;;;8322541;28;20116;-68
2021/05/14 06:37:04;;;;;;;19.90;11.98;;;;;;;;;;8323658;28;20466;-68
2021/05/14 06:41:10;;;;;;;19.52;11.68;;;;;;;;;;8325139;28;20334;-68
2021/05/14 06:45:13;;;;;;;17.67;11.07;;;;;;;;;;8322703;28;20332;-67
2021/05/14 06:49:22;;;;;;;16.90;11.15;;;;;;;;;;8323344;28;20473;-68
2021/05/14 06:53:27;;;;;;;20.33;10.98;;;;;;;;;;8324080;28;20463;-68
2021/05/14 06:57:32;;;;;;;18.58;10.95;;;;;;;;;;8322923;28;20387;-69
2021/05/14 07:01:37;;;;;;;18.83;10.00;;;;;;;;;;8303736;28;20368;-68
2021/05/14 07:05:42;;;;;;;16.95;11.05;;;;;;;;;;8321863;28;20493;-68
2021/05/14 07:09:46;;;;;;;19.70;11.23;;;;;;;;;;8323683;28;20359;-68
2021/05/14 07:13:52;;;;;;;16.23;9.85;;;;;;;;;;8329314;28;20514;-68
2021/05/14 07:17:59;;;;;;;19.58;10.35;;;;;;;;;;8310385;28;20356;-68
2021/05/14 07:22:05;;;;;;;16.67;10.02;;;;;;;;;;8329457;28;20399;-68
2021/05/14 07:26:10;;;;;;;24.23;10.70;;;;;;;;;;8310493;28;20445;-68
2021/05/14 07:30:15;;;;;;;17.40;10.13;;;;;;;;;;8327709;28;20368;-68
2021/05/14 07:34:20;;;;;;;17.35;10.18;;;;;;;;;;8326869;28;20459;-67
2021/05/14 07:38:39;;;;;;;14.23;9.65;;;;;;;;;;8327896;28;20055;-68
2021/05/14 07:42:44;;;;;;;16.65;10.57;;;;;;;;;;8326885;28;20379;-68
2021/05/14 07:46:50;;;;;;;13.77;9.77;;;;;;;;;;8326477;28;20478;-69
2021/05/14 07:50:56;;;;;;;15.70;9.40;;;;;;;;;;8327192;28;20358;-68
2021/05/14 07:55:00;;;;;;;18.38;9.50;;;;;;;;;;8308423;28;20409;-68
2021/05/14 07:59:08;;;;;;;16.42;9.88;;;;;;;;;;8325745;28;20073;-68
2021/05/14 08:03:12;;;;;;;16.67;9.20;;;;;;;;;;8327442;28;20367;-68
2021/05/14 08:07:19;;;;;;;10.93;7.90;;;;;;;;;;8328675;28;20462;-68
2021/05/14 08:11:23;;;;;;;14.77;8.75;;;;;;;;;;8308801;28;20343;-68
2021/05/14 08:15:30;;;;;;;16.88;8.68;;;;;;;;;;8325250;28;20436;-68
2021/05/14 08:19:35;;;;;;;11.23;7.90;;;;;;;;;;8326228;28;20480;-68
2021/05/14 08:23:40;;;;;;;12.30;8.00;;;;;;;;;;8325645;28;20516;-69
2021/05/14 08:27:44;;;;;;;90.95;44.40;;;;;;;;;;8307669;28;20370;-68
2021/05/14 08:31:49;;;;;;;15.68;8.07;;;;;;;;;;8327330;28;20349;-68
2021/05/14 08:35:54;;;;;;;26.33;13.55;;;;;;;;;;8326535;28;20488;-68
2021/05/14 08:39:59;;;;;;;20.83;12.68;;;;;;;;;;8325448;28;20386;-70
2021/05/14 08:44:05;;;;;;;11.85;7.75;;;;;;;;;;8326725;28;20459;-70
2021/05/14 08:48:12;;;;;;;9.85;6.65;;;;;;;;;;8324903;28;20052;-69
2021/05/14 08:52:18;;;;;;;10.02;6.93;;;;;;;;;;8325888;28;20375;-68
2021/05/14 08:56:29;;;;;;;9.75;6.88;;;;;;;;;;8325150;28;20371;-68
2021/05/14 09:00:34;;;;;;;10.98;6.55;;;;;;;;;;8323997;28;20052;-68
2021/05/14 09:04:39;;;;;;;9.15;5.95;;;;;;;;;;8327401;28;20079;-69
2021/05/14 09:08:56;;;;;;;9.57;5.97;;;;;;;;;;8326545;28;20390;-68
2021/05/14 09:13:11;;;;;;;7.68;5.78;;;;;;;;;;8306975;28;20363;-68
2021/05/14 09:17:18;;;;;;;12.95;6.47;;;;;;;;;;8322708;28;20379;-68
2021/05/14 09:21:23;;;;;;;11.53;6.33;;;;;;;;;;8325517;28;20378;-68
2021/05/14 09:25:27;;;;;;;10.10;6.35;;;;;;;;;;8323708;28;20463;-68
2021/05/14 09:29:38;;;;;;;14.13;6.25;;;;;;;;;;8307623;28;20458;-69
2021/05/14 09:33:51;;;;;;;11.38;5.72;;;;;;;;;;8324400;28;20409;-68
2021/05/14 09:37:59;;;;;;;10.93;6.47;;;;;;;;;;8324432;28;20443;-68
2021/05/14 09:42:04;;;;;;;10.02;5.80;;;;;;;;;;8306345;28;20060;-67
2021/05/14 09:46:52;;;;;;;13.65;6.75;;;;;;;;;;8322031;28;20458;-68
2021/05/14 09:50:58;;;;;;;11.32;6.95;;;;;;;;;;8323314;28;20451;-68
2021/05/14 09:55:03;;;;;;;8.60;6.07;;;;;;;;;;8323373;28;20075;-68
2021/05/14 09:59:10;;;;;;;12.68;7.30;;;;;;;;;;8306241;28;20106;-67
2021/05/14 10:03:20;;;;;;;10.68;6.32;;;;;;;;;;8323192;28;20469;-68
2021/05/14 10:07:26;;;;;;;12.52;7.10;;;;;;;;;;8323506;28;20358;-67
2021/05/14 10:11:32;;;;;;;10.75;6.93;;;;;;;;;;8306314;28;20581;-69
2021/05/14 10:15:37;;;;;;;10.88;6.15;;;;;;;;;;8306471;28;20387;-68
2021/05/14 10:19:46;;;;;;;9.25;6.97;;;;;;;;;;8305600;28;20417;-68
2021/05/14 10:23:49;;;;;;;9.63;7.15;;;;;;;;;;8322868;28;20429;-68
2021/05/14 10:28:06;;;;;;;10.25;7.05;;;;;;;;;;8307289;28;20070;-68
2021/05/14 10:32:13;;;;;;;8.63;6.10;;;;;;;;;;8325702;28;20459;-68
2021/05/14 10:36:22;;;;;;;7.65;5.85;;;;;;;;;;8322234;28;20447;-68
2021/05/14 10:40:29;;;;;;;8.23;6.60;;;;;;;;;;8324353;28;20091;-68
2021/05/14 10:44:50;;;;;;;11.32;6.95;;;;;;;;;;8309064;28;20378;-68
2021/05/14 10:49:02;;;;;;;7.88;6.22;;;;;;;;;;8331565;28;20482;-69
2021/05/14 10:53:16;;;;;;;10.30;6.65;;;;;;;;;;8296047;28;20400;-67
2021/05/14 10:57:40;;;;;;;7.88;6.22;;;;;;;;;;8328215;28;20481;-68
2021/05/14 11:01:45;;;;;;;15.90;6.93;;;;;;;;;;8310855;28;20387;-68
2021/05/14 11:06:09;;;;;;;8.18;6.25;;;;;;;;;;8328714;28;20470;-68
2021/05/14 11:10:14;;;;;;;12.40;7.05;;;;;;;;;;8327477;28;20451;-67
2021/05/14 11:14:20;;;;;;;8.88;6.78;;;;;;;;;;8310895;28;20067;-69
2021/05/14 11:18:26;;;;;;;10.40;7.80;;;;;;;;;;8327933;28;20414;-68
2021/05/14 11:22:38;;;;;;;9.05;6.85;;;;;;;;;;8330224;28;20497;-67
2021/05/14 11:26:58;;;;;;;10.70;7.07;;;;;;;;;;8329768;28;20469;-67
2021/05/14 11:31:05;;;;;;;13.15;7.35;;;;;;;;;;8328532;28;20347;-68
2021/05/14 11:35:18;;;;;;;10.35;5.97;;;;;;;;;;8327665;28;20517;-68
2021/05/14 11:39:23;;;;;;;8.68;6.05;;;;;;;;;;8294955;28;20483;-68
2021/05/14 11:43:29;;;;;;;9.85;6.20;;;;;;;;;;8294124;28;20080;-67
2021/05/14 11:47:34;;;;;;;7.45;5.63;;;;;;;;;;8296153;28;20451;-67
2021/05/14 11:51:39;;;;;;;8.80;6.40;;;;;;;;;;8295790;28;20431;-67
2021/05/14 11:55:47;;;;;;;9.20;5.50;;;;;;;;;;8291572;28;20467;-68
2021/05/14 11:59:52;;;;;;;;;;;;;;;;;;8294160;28;20376;-68
2021/05/14 12:03:56;;;;;;;10.75;5.40;;;;;;;;;;8294652;28;20331;-69
2021/05/14 12:08:26;;;;;;;7.57;5.57;;;;;;;;;;8294273;28;20467;-68
2021/05/14 12:12:32;;;;;;;11.30;5.13;;;;;;;;;;8292678;28;20462;-69
2021/05/14 12:16:37;;;;;;;12.48;4.75;;;;;;;;;;8294287;28;20355;-67
2021/05/14 12:20:43;;;;;;;12.43;5.72;;;;;;;;;;8292556;28;20463;-68
2021/05/14 12:24:48;;;;;;;9.05;4.57;;;;;;;;;;8293326;28;20482;-69
2021/05/14 12:28:54;;;;;;;6.90;4.35;;;;;;;;;;8292293;28;20478;-68
2021/05/14 12:33:00;;;;;;;9.30;4.68;;;;;;;;;;8292726;28;20345;-67
2021/05/14 12:37:04;;;;;;;7.03;4.60;;;;;;;;;;8306437;28;20414;-67
2021/05/14 12:41:26;;;;;;;8.48;5.00;;;;;;;;;;8326306;28;20364;-67
2021/05/14 12:45:35;;;;;;;6.28;4.63;;;;;;;;;;8328119;28;20370;-67
2021/05/14 12:49:52;;;;;;;7.53;4.78;;;;;;;;;;8325473;28;20381;-69
2021/05/14 12:53:58;;;;;;;6.45;4.80;;;;;;;;;;8325828;28;20451;-67
2021/05/14 12:58:15;;;;;;;;;;;;;;;;;;8326223;28;20097;-67
2021/05/14 13:02:27;;;;;;;5.97;4.68;;;;;;;;;;8306378;28;20235;-67
2021/05/14 13:06:31;;;;;;;6.82;4.82;;;;;;;;;;8324904;28;20474;-69
2021/05/14 13:10:48;;;;;;;15.75;5.80;;;;;;;;;;8325460;28;20466;-67
2021/05/14 13:14:54;;;;;;;;;;;;;;;;;;8307411;28;20363;-68
2021/05/14 13:19:00;;;;;;;10.15;6.55;;;;;;;;;;8322031;28;19974;-67
2021/05/14 13:23:05;;;;;;;12.68;7.80;;;;;;;;;;8327458;28;20056;-67
2021/05/14 13:27:10;;;;;;;9.77;6.95;;;;;;;;;;8324139;28;20075;-69
2021/05/14 13:31:22;;;;;;;13.38;7.47;;;;;;;;;;8325315;28;20469;-68
2021/05/14 13:35:27;;;;;;;12.65;7.30;;;;;;;;;;8323391;28;20105;-68
2021/05/14 13:39:30;;;;;;;12.55;7.65;;;;;;;;;;8306364;28;20478;-68
2021/05/14 13:43:36;;;;;;;11.57;7.45;;;;;;;;;;8323555;28;20446;-68
2021/05/14 13:47:40;;;;;;;13.55;7.80;;;;;;;;;;8325149;28;20466;-67
2021/05/14 13:51:46;;;;;;;9.98;6.60;;;;;;;;;;8325485;28;20543;-67
2021/05/14 13:55:52;;;;;;;23.05;7.28;;;;;;;;;;8324246;28;20056;-67
2021/05/14 13:59:57;;;;;;;9.80;6.60;;;;;;;;;;8306422;28;20374;-66
2021/05/14 14:04:02;;;;;;;13.82;6.43;;;;;;;;;;8323117;28;20475;-67
2021/05/14 14:08:06;;;;;;;11.27;7.10;;;;;;;;;;8323376;28;20508;-66
2021/05/14 14:12:11;;;;;;;19.27;7.20;;;;;;;;;;8321381;28;20052;-67
2021/05/14 14:16:16;;;;;;;12.43;6.72;;;;;;;;;;8323026;28;20060;-67
2021/05/14 14:20:21;;;;;;;17.35;7.13;;;;;;;;;;8309370;28;20371;-67
2021/05/14 14:24:27;;;;;;;15.13;7.50;;;;;;;;;;8311898;28;20390;-67
2021/05/14 14:28:31;;;;;;;11.32;6.90;;;;;;;;;;8312187;28;20493;-67
2021/05/14 14:32:42;;;;;;;12.05;6.75;;;;;;;;;;8329385;28;20483;-66
2021/05/14 14:36:46;;;;;;;15.00;8.10;;;;;;;;;;8329754;28;20417;-66
2021/05/14 14:40:51;;;;;;;11.77;7.35;;;;;;;;;;8330121;28;20463;-69
2021/05/14 14:44:56;;;;;;;13.13;7.30;;;;;;;;;;8328488;28;20496;-67
2021/05/14 14:49:01;;;;;;;12.98;6.13;;;;;;;;;;8329949;28;20500;-67
2021/05/14 14:53:06;;;;;;;11.02;7.55;;;;;;;;;;8328659;28;20467;-67
2021/05/14 14:57:11;;;;;;;9.63;6.60;;;;;;;;;;8293421;28;20363;-66
2021/05/14 15:01:16;;;;;;;11.57;6.38;;;;;;;;;;8328577;28;20467;-66
2021/05/14 15:05:23;;;;;;;14.15;7.03;;;;;;;;;;8328049;28;20356;-66
2021/05/14 15:09:28;;;;;;;11.73;7.05;;;;;;;;;;8329140;28;20374;-67
2021/05/14 15:13:33;;;;;;;11.23;6.45;;;;;;;;;;8327458;28;20409;-66
2021/05/14 15:17:38;;;;;;;15.38;6.97;;;;;;;;;;8309789;28;20374;-66
2021/05/14 15:21:43;;;;;;;13.35;6.70;;;;;;;;;;8327844;28;20378;-67
2021/05/14 15:25:49;;;;;;;7.10;5.18;;;;;;;;;;8310639;28;20374;-68
2021/05/14 15:29:54;;;;;;;7.68;5.70;;;;;;;;;;8328526;28;20074;-68
2021/05/14 15:33:59;;;;;;;7.75;5.65;;;;;;;;;;8328982;28;20458;-67
2021/05/14 15:38:04;;;;;;;7.15;5.38;;;;;;;;;;8309333;28;20479;-66
2021/05/14 15:42:09;;;;;;;5.95;4.45;;;;;;;;;;8294956;28;20368;-67
2021/05/14 15:46:14;;;;;;;7.82;4.43;;;;;;;;;;8293929;28;20383;-67
2021/05/14 15:50:20;;;;;;;6.50;4.88;;;;;;;;;;8296471;28;20363;-67
2021/05/14 15:54:27;;;;;;;6.68;5.22;;;;;;;;;;8309236;28;20456;-67
2021/05/14 15:58:32;;;;;;;8.20;4.78;;;;;;;;;;8293613;28;20368;-68
2021/05/14 16:02:41;;;;;;;5.18;3.80;;;;;;;;;;8294511;28;20462;-67
2021/05/14 16:06:46;;;;;;;7.57;4.20;;;;;;;;;;8293933;28;20394;-67
2021/05/14 16:10:51;;;;;;;8.27;4.90;;;;;;;;;;8293730;28;20456;-67
2021/05/14 16:14:55;;;;;;;6.00;4.80;;;;;;;;;;8292585;28;20056;-68
2021/05/14 16:19:03;;;;;;;7.13;4.55;;;;;;;;;;8293641;28;20498;-67
2021/05/14 16:23:11;;;;;;;7.82;4.68;;;;;;;;;;8293633;28;20412;-67
2021/05/14 16:27:17;;;;;;;4.78;4.10;;;;;;;;;;8292054;28;20115;-67
2021/05/14 16:31:22;;;;;;;8.15;5.38;;;;;;;;;;8291363;28;20387;-67
2021/05/14 16:35:27;;;;;;;10.55;4.40;;;;;;;;;;8293545;28;20453;-67
2021/05/14 16:39:32;;;;;;;5.38;4.00;;;;;;;;;;8325903;28;20474;-67
2021/05/14 16:43:38;;;;;;;5.10;4.23;;;;;;;;;;8307840;28;20362;-67
2021/05/14 16:47:45;;;;;;;4.70;4.05;;;;;;;;;;8326900;28;20467;-67
2021/05/14 16:51:51;;;;;;;6.32;4.15;;;;;;;;;;8325289;28;20500;-67
2021/05/14 16:55:56;;;;;;;6.43;4.05;;;;;;;;;;8327917;28;20442;-67
2021/05/14 17:00:01;;;;;;;11.70;9.93;;;;;;;;;;8324260;28;20459;-67
2021/05/14 17:04:07;;;;;;;5.30;3.53;;;;;;;;;;8325289;28;20410;-66
2021/05/14 17:08:11;;;;;;;4.20;3.15;;;;;;;;;;8325469;28;20060;-67
2021/05/14 17:12:16;;;;;;;7.68;3.60;;;;;;;;;;8325471;28;20474;-66
2021/05/14 17:16:21;;;;;;;4.43;3.38;;;;;;;;;;8325409;28;20399;-68
2021/05/14 17:20:26;;;;;;;4.80;2.78;;;;;;;;;;8325813;28;20052;-67
2021/05/14 17:24:31;;;;;;;5.60;3.15;;;;;;;;;;8325600;28;20052;-66
2021/05/14 17:28:37;;;;;;;4.95;2.80;;;;;;;;;;8324579;28;20488;-66
2021/05/14 17:32:42;;;;;;;4.82;2.22;;;;;;;;;;8323613;28;20363;-66
2021/05/14 17:36:49;;;;;;;4.20;2.85;;;;;;;;;;8324399;28;20059;-67
2021/05/14 17:40:54;;;;;;;4.85;3.10;;;;;;;;;;8306451;28;20401;-66
2021/05/14 17:45:00;;;;;;;4.45;2.60;;;;;;;;;;8307380;28;20074;-66
2021/05/14 17:49:05;;;;;;;7.00;2.55;;;;;;;;;;8321941;28;20382;-65
2021/05/14 17:53:10;;;;;;;3.72;2.30;;;;;;;;;;8323748;28;20490;-66
2021/05/14 17:57:15;;;;;;;3.78;1.85;;;;;;;;;;8323809;28;20382;-66
2021/05/14 18:01:22;;;;;;;5.22;2.05;;;;;;;;;;8324062;28;20382;-66
2021/05/14 18:05:27;;;;;;;3.40;2.20;;;;;;;;;;8305165;28;20382;-66
2021/05/14 18:09:32;;;;;;;3.33;1.70;;;;;;;;;;8324874;28;20470;-66
2021/05/14 18:13:37;;;;;;;3.17;2.22;;;;;;;;;;8322719;28;20048;-68
2021/05/14 18:17:43;;;;;;;3.67;2.03;;;;;;;;;;8322996;28;20466;-66
2021/05/14 18:21:47;;;;;;;3.90;2.33;;;;;;;;;;8323052;28;20393;-68
2021/05/14 18:25:52;;;;;;;3.67;2.40;;;;;;;;;;8325720;28;20083;-68
2021/05/14 18:29:57;;;;;;;3.95;2.10;;;;;;;;;;8323258;28;20470;-68
2021/05/14 18:34:04;;;;;;;3.58;2.15;;;;;;;;;;8323781;28;20383;-68
2021/05/14 18:38:08;;;;;;;6.80;2.85;;;;;;;;;;8322152;28;20459;-68
2021/05/14 18:42:13;;;;;;;6.50;3.25;;;;;;;;;;8323796;28;20452;-65
2021/05/14 18:46:16;;;;;;;5.20;2.47;;;;;;;;;;8322322;28;20467;-66
2021/05/14 18:50:22;;;;;;;6.40;2.83;;;;;;;;;;8323030;28;20417;-68
2021/05/14 18:54:27;;;;;;;5.55;2.55;;;;;;;;;;8322285;28;20390;-68
2021/05/14 18:58:32;;;;;;;6.85;2.33;;;;;;;;;;8322589;28;20466;-65
2021/05/14 19:02:37;;;;;;;3.40;1.90;;;;;;;;;;8322088;28;20463;-68
2021/05/14 19:06:43;;;;;;;3.72;2.30;;;;;;;;;;8326771;28;20052;-68
2021/05/14 19:10:48;;;;;;;8.02;2.75;;;;;;;;;;8327922;28;20351;-67
2021/05/14 19:14:53;;;;;;;3.90;1.90;;;;;;;;;;8330805;28;20366;-68
2021/05/14 19:18:59;;;;;;;4.78;1.85;;;;;;;;;;8328804;28;20455;-68
2021/05/14 19:23:12;;;;;;;1.83;1.45;;;;;;;;;;8325930;28;20402;-67
2021/05/14 19:36:32;;;;;;;2.50;1.55;;;;;;;;;;8327853;28;20173;-69
2021/05/14 19:45:08;;;;;;;4.75;1.58;;;;;;;;;;8326314;28;20083;-67
2021/05/14 19:49:13;;;;;;;2.88;1.70;;;;;;;;;;8327100;28;20431;-67
2021/05/14 19:53:18;;;;;;;3.67;1.95;;;;;;;;;;8328797;28;20044;-67
2021/05/14 19:57:23;;;;;;;7.97;2.00;;;;;;;;;;8328373;28;20381;-68
2021/05/14 20:01:28;;;;;;;2.33;1.48;;;;;;;;;;8327878;28;20048;-67
2021/05/14 20:05:35;;;;;;;5.05;1.80;;;;;;;;;;8328279;28;20459;-67
2021/05/14 20:09:40;;;;;;;3.03;2.20;;;;;;;;;;8326153;28;20493;-68
2021/05/14 20:13:45;;;;;;;2.80;1.65;;;;;;;;;;8327018;28;20545;-67
2021/05/14 20:17:50;;;;;;;4.10;1.90;;;;;;;;;;8326280;28;20366;-68
2021/05/14 20:21:55;;;;;;;7.97;2.10;;;;;;;;;;8327471;28;20470;-67
2021/05/14 20:26:01;;;;;;;3.13;2.35;;;;;;;;;;8327036;28;20450;-67
2021/05/14 20:30:06;;;;;;;8.20;2.55;;;;;;;;;;8326665;28;20359;-68
2021/05/14 20:34:10;;;;;;;5.65;2.85;;;;;;;;;;8326801;28;20383;-67
2021/05/14 20:38:20;;;;;;;7.75;3.15;;;;;;;;;;8326262;28;20489;-68
2021/05/14 20:42:25;;;;;;;6.75;3.95;;;;;;;;;;8326541;28;20312;-67
2021/05/14 20:46:30;;;;;;;8.90;4.15;;;;;;;;;;8324281;28;20482;-67
2021/05/14 20:50:35;;;;;;;9.60;3.65;;;;;;;;;;8308353;28;20382;-67
2021/05/14 20:54:40;;;;;;;8.10;3.78;;;;;;;;;;8327340;28;20436;-67
2021/05/14 20:58:45;;;;;;;5.20;2.80;;;;;;;;;;8325042;28;20060;-67
2021/05/14 21:02:50;;;;;;;9.05;3.88;;;;;;;;;;8325390;28;20481;-67
2021/05/14 21:06:55;;;;;;;6.72;3.30;;;;;;;;;;8308500;28;20362;-67
2021/05/14 21:11:00;;;;;;;4.15;2.42;;;;;;;;;;8325673;28;20420;-67
2021/05/14 21:15:07;;;;;;;5.53;3.17;;;;;;;;;;8325784;28;20056;-67
2021/05/14 21:19:12;;;;;;;6.72;2.88;;;;;;;;;;8325289;28;20394;-68
2021/05/14 21:23:18;;;;;;;9.98;3.28;;;;;;;;;;8324038;28;20474;-68
2021/05/14 21:27:23;;;;;;;5.38;3.08;;;;;;;;;;8306511;28;20524;-68
2021/05/14 21:31:28;;;;;;;8.18;3.30;;;;;;;;;;8325865;28;20375;-67
2021/05/14 21:35:33;;;;;;;8.07;3.03;;;;;;;;;;8323954;28;20075;-68
2021/05/14 21:39:35;;;;;;;6.50;2.85;;;;;;;;;;8324492;28;20389;-67
2021/05/14 21:43:40;;;;;;;12.82;3.20;;;;;;;;;;8324519;28;20394;-66
2021/05/14 21:47:43;;;;;;;5.45;2.70;;;;;;;;;;8324009;28;20356;-66
2021/05/14 21:51:47;;;;;;;6.28;2.50;;;;;;;;;;8324724;28;20470;-67
2021/05/14 21:55:53;;;;;;;5.22;2.85;;;;;;;;;;8307439;28;20484;-66
2021/05/14 21:59:57;;;;;;;4.57;2.75;;;;;;;;;;8324302;28;20497;-67
2021/05/14 22:04:00;;;;;;;8.05;3.28;;;;;;;;;;8307590;28;20481;-66
2021/05/14 22:08:05;;;;;;;11.63;4.22;;;;;;;;;;8305892;28;20056;-67
2021/05/14 22:12:11;;;;;;;4.22;2.60;;;;;;;;;;8323509;28;20366;-67
2021/05/14 22:16:15;;;;;;;7.28;2.65;;;;;;;;;;8324220;28;20481;-66
2021/05/14 22:20:18;;;;;;;11.18;3.80;;;;;;;;;;8305286;28;20498;-66
2021/05/14 22:24:23;;;;;;;8.40;3.47;;;;;;;;;;8322431;28;20349;-67
2021/05/14 22:28:26;;;;;;;8.00;3.80;;;;;;;;;;8322513;28;20551;-67
2021/05/14 22:32:30;;;;;;;8.95;3.60;;;;;;;;;;8305330;28;20346;-67
2021/05/14 22:36:34;;;;;;;7.47;3.30;;;;;;;;;;8323183;28;20360;-67
2021/05/14 22:40:38;;;;;;;11.77;3.65;;;;;;;;;;8326015;28;20451;-66
2021/05/14 22:44:42;;;;;;;7.90;3.63;;;;;;;;;;8329271;28;20490;-67
2021/05/14 22:48:49;;;;;;;7.80;3.75;;;;;;;;;;8329002;28;20052;-67
2021/05/14 22:52:53;;;;;;;12.80;4.97;;;;;;;;;;8311211;28;20363;-67
2021/05/14 22:56:56;;;;;;;13.18;5.43;;;;;;;;;;8329945;28;20439;-68
2021/05/14 23:01:01;;;;;;;19.23;6.40;;;;;;;;;;8328240;28;20351;-67
2021/05/14 23:05:07;;;;;;;15.35;6.03;;;;;;;;;;8329432;28;20362;-67
2021/05/14 23:09:11;;;;;;;11.23;6.07;;;;;;;;;;8329401;28;20485;-68
2021/05/14 23:13:15;;;;;;;16.48;6.05;;;;;;;;;;8328713;28;20356;-67
2021/05/14 23:17:18;;;;;;;14.23;7.60;;;;;;;;;;8311685;28;20344;-66
2021/05/14 23:21:22;;;;;;;22.20;9.27;;;;;;;;;;8328003;28;20355;-67
2021/05/14 23:25:26;;;;;;;15.05;8.27;;;;;;;;;;8327195;28;20493;-67
2021/05/14 23:29:30;;;;;;;18.40;9.75;;;;;;;;;;8328522;28;20356;-66
2021/05/14 23:33:33;;;;;;;20.02;11.88;;;;;;;;;;8310632;28;20377;-67
2021/05/14 23:37:37;;;;;;;20.35;11.18;;;;;;;;;;8309174;28;20475;-67
2021/05/14 23:41:41;;;;;;;22.92;11.38;;;;;;;;;;8328100;28;20473;-67
2021/05/14 23:45:45;;;;;;;26.65;11.38;;;;;;;;;;8328889;28;20359;-67
2021/05/14 23:49:48;;;;;;;24.02;12.68;;;;;;;;;;8308276;28;20466;-67
2021/05/14 23:53:52;;;;;;;22.63;13.80;;;;;;;;;;8328220;28;20363;-67
2021/05/14 23:57:56;;;;;;;23.90;13.82;;;;;;;;;;8326682;28;20471;-67
